createdAt,value
2019-01-12T00:02:01.732Z,97.23
2019-01-12T00:12:01.650Z,96.65
2019-01-12T00:22:01.605Z,96.06
2019-01-12T00:32:01.603Z,95.41
2019-01-12T00:37:01.618Z,95.41
2019-01-12T00:47:01.751Z,96.65
2019-01-12T00:57:01.599Z,96.11
2019-01-12T01:07:01.660Z,96.11
2019-01-12T01:22:01.609Z,93.31
2019-01-12T01:37:01.601Z,90.91
2019-01-12T01:42:01.665Z,89.89
2019-01-12T01:52:01.610Z,89.46
2019-01-12T02:02:01.600Z,90.04
2019-01-12T02:17:01.605Z,90.4
2019-01-12T02:27:01.768Z,90.8
2019-01-12T02:43:01.700Z,91.01
2019-01-12T02:53:01.758Z,91.28
2019-01-12T03:08:01.661Z,91.44
2019-01-12T03:18:01.613Z,91.47
2019-01-12T03:33:01.599Z,92.85
2019-01-12T03:48:01.612Z,94.07
2019-01-12T04:03:01.599Z,97.28
2019-01-12T04:18:04.762Z,98.83
2019-01-12T04:33:01.686Z,99.0
2019-01-12T04:38:01.537Z,99.0
2019-01-12T04:53:01.595Z,99.0
2019-01-12T05:03:01.534Z,99.0
2019-01-12T05:18:01.662Z,99.0
2019-01-12T05:33:01.562Z,99.0
2019-01-12T05:43:02.629Z,99.0
2019-01-12T05:58:01.736Z,99.0
2019-01-12T06:13:01.684Z,99.0
2019-01-12T06:28:01.660Z,99.0
2019-01-12T06:33:01.723Z,99.0
2019-01-12T06:49:01.742Z,99.0
2019-01-12T07:04:01.701Z,99.0
2019-01-12T07:19:01.689Z,99.0
2019-01-12T07:34:01.760Z,99.0
2019-01-12T07:49:01.711Z,99.0
2019-01-12T07:59:01.681Z,99.0
2019-01-12T08:14:01.670Z,99.0
2019-01-12T08:29:02.197Z,99.0
2019-01-12T08:44:01.562Z,99.0
2019-01-12T08:54:01.562Z,99.0
2019-01-12T09:04:01.546Z,99.0
2019-01-12T09:19:06.558Z,99.0
2019-01-12T09:24:01.518Z,99.0
2019-01-12T09:39:01.530Z,99.0
2019-01-12T09:54:01.536Z,99.0
2019-01-12T10:09:01.547Z,99.0
2019-01-12T10:24:01.553Z,99.0
2019-01-12T10:39:01.524Z,99.0
2019-01-12T10:49:01.524Z,99.0
2019-01-12T10:59:02.745Z,99.0
2019-01-12T11:09:01.566Z,99.0
2019-01-12T11:19:01.604Z,99.0
2019-01-12T11:34:01.385Z,99.0
2019-01-12T11:44:01.527Z,99.0
2019-01-12T11:59:02.435Z,99.0
2019-01-12T12:04:01.556Z,99.0
2019-01-12T12:14:01.568Z,99.0
2019-01-12T12:30:01.539Z,99.0
2019-01-12T12:45:01.755Z,99.0
2019-01-12T13:00:01.555Z,99.0
2019-01-12T13:05:01.550Z,99.0
2019-01-12T13:15:02.176Z,99.0
2019-01-12T13:25:06.554Z,99.0
2019-01-12T13:30:01.597Z,99.0
2019-01-12T13:35:01.586Z,99.0
2019-01-12T13:45:01.539Z,99.0
2019-01-12T13:55:01.636Z,99.0
2019-01-12T14:00:01.640Z,99.0
2019-01-12T14:05:01.582Z,99.0
2019-01-12T14:15:01.539Z,99.0
2019-01-12T14:25:01.546Z,99.0
2019-01-12T14:30:01.779Z,99.0
2019-01-12T14:40:01.692Z,99.0
2019-01-12T14:45:01.705Z,99.0
2019-01-12T15:00:01.908Z,99.0
2019-01-12T15:05:01.821Z,99.0
2019-01-12T15:15:01.682Z,99.0
2019-01-12T15:20:01.779Z,99.0
2019-01-12T15:25:01.717Z,99.0
2019-01-12T15:30:01.664Z,99.0
2019-01-12T15:35:01.671Z,99.0
2019-01-12T15:40:01.682Z,99.0
2019-01-12T15:45:01.712Z,99.0
2019-01-12T16:00:01.752Z,99.0
2019-01-12T16:06:01.670Z,99.0
2019-01-12T16:21:01.788Z,99.0
2019-01-12T16:26:02.007Z,99.0
2019-01-12T16:41:01.704Z,99.0
2019-01-12T16:56:01.698Z,99.0
2019-01-12T17:06:01.594Z,99.0
2019-01-12T17:11:01.610Z,99.0
2019-01-12T17:16:01.562Z,99.0
2019-01-12T17:31:01.920Z,99.0
2019-01-12T17:41:01.821Z,99.0
2019-01-12T17:57:01.665Z,99.0
2019-01-12T18:07:01.669Z,99.0
2019-01-12T18:17:01.648Z,99.0
2019-01-12T18:22:01.617Z,99.0
2019-01-12T18:37:01.995Z,99.0
2019-01-12T18:42:01.681Z,99.0
2019-01-12T18:52:01.803Z,99.0
2019-01-12T19:02:01.610Z,99.0
2019-01-12T19:12:01.768Z,99.0
2019-01-12T19:17:01.548Z,99.0
2019-01-12T19:32:01.625Z,99.0
2019-01-12T19:47:01.773Z,99.0
2019-01-12T19:57:01.737Z,99.0
2019-01-12T20:12:01.656Z,99.0
2019-01-12T20:27:01.602Z,99.0
2019-01-12T20:37:01.701Z,99.0
2019-01-12T20:47:01.642Z,99.0
2019-01-12T20:57:01.672Z,99.0
2019-01-12T21:03:01.654Z,99.0
2019-01-12T21:18:02.558Z,99.0
2019-01-12T21:28:01.604Z,99.0
2019-01-12T21:38:01.701Z,99.0
2019-01-12T21:53:01.615Z,99.0
2019-01-12T22:08:01.617Z,99.0
2019-01-12T22:23:03.213Z,99.0
2019-01-12T22:38:01.797Z,99.0
2019-01-12T22:48:01.760Z,99.0
2019-01-12T22:53:01.603Z,99.0
2019-01-12T23:08:01.661Z,99.0
2019-01-12T23:23:01.664Z,99.0
2019-01-12T23:38:01.649Z,99.0
2019-01-12T23:43:01.610Z,99.0
2019-01-12T23:58:01.603Z,99.0
